Fletcher, Illinois
Current Conditions -  °F | °C
As of 6:13 PM on Sunday 23 Nov 2014 (Local Time) from KBMI Reporting Station
Light Rain Light Rain  
Wind Chill: 50°   Ceiling: 300
Heat Index: 50°   Visibility: 1.5mi
Dew Point: 50°   Wind: 9mph
Humidity: 100%   Direction: 150°SSE
Pressure: 29.31"   Gusts: NA
Location:  40.4766°N, 88.992°W
Report Text: KBMI 240013Z 15008KT 1 1/2SM -RA BR OVC003 10/10 A2931 RMK AO2 P0005
Loading
Personal Weather Stations






























Interactive Weather Map New forecast layout! Learn more

10-Day Weather Forecast

Advertisements
Track Severe Weather on mobile